Colorado Springs, CO (80919)

10:42 PM MDT on August 24, 2016 (GMT -0600)
At the Orton-Urbina's | | Change Station

Elev 6700 ft 38.93 °N, 104.85 °W | Updated 2 minutes ago

Partly Cloudy
Partly Cloudy
53.1 °F
Feels Like 53.1 °F
N
5.4
Wind Variable Wind from North
Gusts 6.0 mph

Today
High -- | Low -- °F
--% Chance of Precip.
Yesterday
High -- | Low -- °F
Precip. -- in
Pressure 30.14 in
Visibility 10.0 miles
Clouds Few 12000 ft
Dew Point 45 °F
Humidity 73%
Rainfall Not available.
Snow Depth Not available.
6:21 AM 7:40 PM
Waning Gibbous, 50% visible
METAR KAFF 250358Z AUTO 36009KT 10SM FEW120 11/10 A3031 RMK AO2 SLP206 P0000 T01130095
Pressure 30.14 in
Visibility 10.0 miles
Clouds Few 12000 ft
Dew Point 45 °F
Humidity 73%
Rainfall Not available.
Snow Depth Not available.
6:21 AM 7:40 PM
Waning Gibbous, 50% visible
METAR KAFF 250358Z AUTO 36009KT 10SM FEW120 11/10 A3031 RMK AO2 SLP206 P0000 T01130095

10-Day Weather Forecast

Almanac

Astronomy

Aug. 24, 2016 Rise Set
Actual Time
Civil Twilight
Nautical Twilight
Astronomical Twilight
Moon
Length of Visible Light
Length of Day
Tomorrow will be .
, % of the Moon is Illuminated

Today's Extremes

State Highs State Lows

Community

WunderPhotos

Upload Photos

1,934,798 photos uploaded!

WunderBlog® & News

Nearby

Air Quality

  Air Quality AQ Index Pollutant
Not available.

Snow Depth

Station Depth Elevation

Earthquake Activity

City Distance Mag. Time & Date
Minimum magnitude displayed is 2.5.

Coastal Water Temperatures

Place Temperature

Stations

Nearby Weather Stations

Station Location Temp. Windchill Dew Point Humidity Wind Precip. Elev Updated Type
                   

Watches & Warnings

There are currently no watches in effect.